sensor_id;sensor_type;location;lat;lon;timestamp;temperature;humidity
6178;DHT22;3122;48.208;11.174;2023-12-14T00:01:22;5.40;1.00
6178;DHT22;3122;48.208;11.174;2023-12-14T00:06:23;5.30;1.00
6178;DHT22;3122;48.208;11.174;2023-12-14T00:11:24;5.40;1.00
6178;DHT22;3122;48.208;11.174;2023-12-14T00:16:24;5.30;1.00
6178;DHT22;3122;48.208;11.174;2023-12-14T00:21:25;5.30;1.00
6178;DHT22;3122;48.208;11.174;2023-12-14T00:26:25;5.30;1.00
6178;DHT22;3122;48.208;11.174;2023-12-14T00:31:26;5.40;1.00
6178;DHT22;3122;48.208;11.174;2023-12-14T00:36:26;5.40;1.00
6178;DHT22;3122;48.208;11.174;2023-12-14T00:41:27;5.20;1.00
6178;DHT22;3122;48.208;11.174;2023-12-14T00:46:27;5.20;1.00
6178;DHT22;3122;48.208;11.174;2023-12-14T00:51:28;5.20;1.00
6178;DHT22;3122;48.208;11.174;2023-12-14T00:56:28;5.10;1.00
6178;DHT22;3122;48.208;11.174;2023-12-14T01:01:29;5.00;1.00
6178;DHT22;3122;48.208;11.174;2023-12-14T01:06:29;5.00;1.00
6178;DHT22;3122;48.208;11.174;2023-12-14T01:11:30;4.90;1.00
6178;DHT22;3122;48.208;11.174;2023-12-14T01:16:30;5.00;1.00
6178;DHT22;3122;48.208;11.174;2023-12-14T01:21:34;4.90;1.00
6178;DHT22;3122;48.208;11.174;2023-12-14T01:26:35;4.90;1.00
6178;DHT22;3122;48.208;11.174;2023-12-14T01:31:35;4.80;1.00
6178;DHT22;3122;48.208;11.174;2023-12-14T01:36:36;4.80;1.00
6178;DHT22;3122;48.208;11.174;2023-12-14T01:41:36;4.80;1.00
6178;DHT22;3122;48.208;11.174;2023-12-14T01:46:37;4.70;1.00
6178;DHT22;3122;48.208;11.174;2023-12-14T01:51:37;4.80;1.00
6178;DHT22;3122;48.208;11.174;2023-12-14T01:56:38;4.80;1.00
6178;DHT22;3122;48.208;11.174;2023-12-14T02:01:44;4.70;1.00
6178;DHT22;3122;48.208;11.174;2023-12-14T02:06:45;4.80;1.00
6178;DHT22;3122;48.208;11.174;2023-12-14T02:11:45;4.70;1.00
6178;DHT22;3122;48.208;11.174;2023-12-14T02:16:46;4.70;1.00
6178;DHT22;3122;48.208;11.174;2023-12-14T02:21:46;4.60;1.00
6178;DHT22;3122;48.208;11.174;2023-12-14T02:26:47;4.60;1.00
6178;DHT22;3122;48.208;11.174;2023-12-14T02:31:47;4.50;1.00
6178;DHT22;3122;48.208;11.174;2023-12-14T02:36:48;4.40;1.00
6178;DHT22;3122;48.208;11.174;2023-12-14T02:41:49;4.40;3.10
6178;DHT22;3122;48.208;11.174;2023-12-14T02:46:49;4.50;2.80
6178;DHT22;3122;48.208;11.174;2023-12-14T02:51:50;4.40;5.20
6178;DHT22;3122;48.208;11.174;2023-12-14T02:56:50;4.50;3.10
6178;DHT22;3122;48.208;11.174;2023-12-14T03:01:51;4.50;4.60
6178;DHT22;3122;48.208;11.174;2023-12-14T03:06:51;4.40;3.70
6178;DHT22;3122;48.208;11.174;2023-12-14T03:11:52;4.40;2.40
6178;DHT22;3122;48.208;11.174;2023-12-14T03:16:52;4.30;2.30
6178;DHT22;3122;48.208;11.174;2023-12-14T03:21:53;4.40;1.80
6178;DHT22;3122;48.208;11.174;2023-12-14T03:26:54;4.40;1.20
6178;DHT22;3122;48.208;11.174;2023-12-14T03:31:55;4.40;1.00
6178;DHT22;3122;48.208;11.174;2023-12-14T03:36:56;4.40;1.00
6178;DHT22;3122;48.208;11.174;2023-12-14T03:41:57;4.30;1.00
6178;DHT22;3122;48.208;11.174;2023-12-14T03:46:57;4.20;1.00
6178;DHT22;3122;48.208;11.174;2023-12-14T03:51:58;4.20;1.00
6178;DHT22;3122;48.208;11.174;2023-12-14T03:56:58;4.30;1.00
6178;DHT22;3122;48.208;11.174;2023-12-14T04:01:59;4.30;1.00
6178;DHT22;3122;48.208;11.174;2023-12-14T04:07:00;4.30;1.00
6178;DHT22;3122;48.208;11.174;2023-12-14T04:12:00;4.20;1.00
6178;DHT22;3122;48.208;11.174;2023-12-14T04:17:01;4.30;1.00
6178;DHT22;3122;48.208;11.174;2023-12-14T04:22:01;4.30;1.00
6178;DHT22;3122;48.208;11.174;2023-12-14T04:27:02;4.20;1.00
6178;DHT22;3122;48.208;11.174;2023-12-14T04:32:03;4.30;1.00
6178;DHT22;3122;48.208;11.174;2023-12-14T04:37:03;4.20;1.00
6178;DHT22;3122;48.208;11.174;2023-12-14T04:42:04;4.30;1.00
6178;DHT22;3122;48.208;11.174;2023-12-14T04:47:05;4.30;1.00
6178;DHT22;3122;48.208;11.174;2023-12-14T04:52:05;4.30;1.00
6178;DHT22;3122;48.208;11.174;2023-12-14T04:57:06;4.30;1.00
6178;DHT22;3122;48.208;11.174;2023-12-14T05:02:07;4.30;1.00
6178;DHT22;3122;48.208;11.174;2023-12-14T05:07:07;4.20;1.30
6178;DHT22;3122;48.208;11.174;2023-12-14T05:12:08;4.30;2.90
6178;DHT22;3122;48.208;11.174;2023-12-14T05:17:08;4.30;3.60
6178;DHT22;3122;48.208;11.174;2023-12-14T05:22:09;4.30;3.40
6178;DHT22;3122;48.208;11.174;2023-12-14T05:27:10;4.30;3.90
6178;DHT22;3122;48.208;11.174;2023-12-14T05:32:10;4.30;3.40
6178;DHT22;3122;48.208;11.174;2023-12-14T05:37:11;4.30;4.90
6178;DHT22;3122;48.208;11.174;2023-12-14T05:42:11;4.30;5.90
6178;DHT22;3122;48.208;11.174;2023-12-14T05:47:12;4.40;6.40
6178;DHT22;3122;48.208;11.174;2023-12-14T05:52:12;4.30;7.70
6178;DHT22;3122;48.208;11.174;2023-12-14T05:57:13;4.30;8.20
6178;DHT22;3122;48.208;11.174;2023-12-14T06:02:13;4.40;9.10
6178;DHT22;3122;48.208;11.174;2023-12-14T06:07:14;4.40;10.20
6178;DHT22;3122;48.208;11.174;2023-12-14T06:12:16;4.40;10.00
6178;DHT22;3122;48.208;11.174;2023-12-14T06:17:16;4.50;9.80
6178;DHT22;3122;48.208;11.174;2023-12-14T06:22:17;4.40;9.20
6178;DHT22;3122;48.208;11.174;2023-12-14T06:27:17;4.50;8.60
6178;DHT22;3122;48.208;11.174;2023-12-14T06:32:18;4.40;8.70
6178;DHT22;3122;48.208;11.174;2023-12-14T06:37:18;4.50;9.80
6178;DHT22;3122;48.208;11.174;2023-12-14T06:42:19;4.50;9.60
6178;DHT22;3122;48.208;11.174;2023-12-14T06:47:20;4.40;9.00
6178;DHT22;3122;48.208;11.174;2023-12-14T06:52:20;4.40;9.60
6178;DHT22;3122;48.208;11.174;2023-12-14T06:57:21;4.50;11.00
6178;DHT22;3122;48.208;11.174;2023-12-14T07:02:21;4.50;10.50
6178;DHT22;3122;48.208;11.174;2023-12-14T07:07:22;4.50;10.50
6178;DHT22;3122;48.208;11.174;2023-12-14T07:12:22;4.50;11.00
6178;DHT22;3122;48.208;11.174;2023-12-14T07:17:23;4.50;11.40
6178;DHT22;3122;48.208;11.174;2023-12-14T07:22:23;4.50;11.00
6178;DHT22;3122;48.208;11.174;2023-12-14T07:27:24;4.50;11.30
6178;DHT22;3122;48.208;11.174;2023-12-14T07:32:24;4.60;12.20
6178;DHT22;3122;48.208;11.174;2023-12-14T07:37:25;4.70;12.00
6178;DHT22;3122;48.208;11.174;2023-12-14T07:42:27;4.70;11.70
6178;DHT22;3122;48.208;11.174;2023-12-14T07:47:27;4.80;13.70
6178;DHT22;3122;48.208;11.174;2023-12-14T07:52:28;4.80;13.60
6178;DHT22;3122;48.208;11.174;2023-12-14T07:57:28;4.80;11.70
6178;DHT22;3122;48.208;11.174;2023-12-14T08:02:29;4.80;12.20
6178;DHT22;3122;48.208;11.174;2023-12-14T08:07:30;4.70;13.70
6178;DHT22;3122;48.208;11.174;2023-12-14T08:12:31;4.70;14.80
6178;DHT22;3122;48.208;11.174;2023-12-14T08:17:32;4.70;15.30
6178;DHT22;3122;48.208;11.174;2023-12-14T08:22:32;4.70;16.40
6178;DHT22;3122;48.208;11.174;2023-12-14T08:27:33;4.90;16.60
6178;DHT22;3122;48.208;11.174;2023-12-14T08:32:33;4.80;16.60
6178;DHT22;3122;48.208;11.174;2023-12-14T08:37:35;4.90;17.70
6178;DHT22;3122;48.208;11.174;2023-12-14T08:42:36;5.00;17.10
6178;DHT22;3122;48.208;11.174;2023-12-14T08:47:36;5.10;17.10
6178;DHT22;3122;48.208;11.174;2023-12-14T08:52:37;5.00;16.00
6178;DHT22;3122;48.208;11.174;2023-12-14T08:57:38;5.20;16.70
6178;DHT22;3122;48.208;11.174;2023-12-14T09:02:39;5.10;16.20
6178;DHT22;3122;48.208;11.174;2023-12-14T09:07:40;5.10;16.80
6178;DHT22;3122;48.208;11.174;2023-12-14T09:12:40;5.20;15.40
6178;DHT22;3122;48.208;11.174;2023-12-14T09:17:41;5.30;16.70
6178;DHT22;3122;48.208;11.174;2023-12-14T09:22:42;5.30;11.70
6178;DHT22;3122;48.208;11.174;2023-12-14T09:27:43;5.30;12.10
6178;DHT22;3122;48.208;11.174;2023-12-14T09:32:43;5.30;12.80
6178;DHT22;3122;48.208;11.174;2023-12-14T09:37:44;5.30;11.80
6178;DHT22;3122;48.208;11.174;2023-12-14T09:42:45;5.30;13.50
6178;DHT22;3122;48.208;11.174;2023-12-14T09:47:46;5.40;14.60
6178;DHT22;3122;48.208;11.174;2023-12-14T09:52:46;5.30;12.80
6178;DHT22;3122;48.208;11.174;2023-12-14T09:57:49;5.30;12.40
6178;DHT22;3122;48.208;11.174;2023-12-14T10:02:49;5.30;14.20
6178;DHT22;3122;48.208;11.174;2023-12-14T10:07:51;5.30;15.70
6178;DHT22;3122;48.208;11.174;2023-12-14T10:12:53;5.30;15.20
6178;DHT22;3122;48.208;11.174;2023-12-14T10:17:55;5.30;16.10
6178;DHT22;3122;48.208;11.174;2023-12-14T10:22:55;5.30;14.10
6178;DHT22;3122;48.208;11.174;2023-12-14T10:27:57;5.40;15.30
6178;DHT22;3122;48.208;11.174;2023-12-14T10:32:57;5.40;14.40
6178;DHT22;3122;48.208;11.174;2023-12-14T10:38:03;5.40;9.70
6178;DHT22;3122;48.208;11.174;2023-12-14T10:43:05;5.50;9.60
6178;DHT22;3122;48.208;11.174;2023-12-14T10:48:06;5.50;7.90
6178;DHT22;3122;48.208;11.174;2023-12-14T10:53:06;5.70;8.80
6178;DHT22;3122;48.208;11.174;2023-12-14T10:58:09;5.60;5.70
6178;DHT22;3122;48.208;11.174;2023-12-14T11:03:13;5.60;7.30
6178;DHT22;3122;48.208;11.174;2023-12-14T11:08:14;5.60;3.10
6178;DHT22;3122;48.208;11.174;2023-12-14T11:13:17;5.60;3.60
6178;DHT22;3122;48.208;11.174;2023-12-14T11:23:27;5.70;1.00
6178;DHT22;3122;48.208;11.174;2023-12-14T11:28:37;5.60;1.00
6178;DHT22;3122;48.208;11.174;2023-12-14T11:33:38;5.80;1.00
6178;DHT22;3122;48.208;11.174;2023-12-14T11:38:38;5.80;1.00
6178;DHT22;3122;48.208;11.174;2023-12-14T11:43:43;5.80;1.00
6178;DHT22;3122;48.208;11.174;2023-12-14T11:48:45;5.80;1.00
6178;DHT22;3122;48.208;11.174;2023-12-14T11:53:47;5.90;1.00
6178;DHT22;3122;48.208;11.174;2023-12-14T11:58:50;6.00;1.00
6178;DHT22;3122;48.208;11.174;2023-12-14T12:03:51;5.90;1.00
6178;DHT22;3122;48.208;11.174;2023-12-14T12:08:52;5.90;1.00
6178;DHT22;3122;48.208;11.174;2023-12-14T12:13:54;5.80;1.00
6178;DHT22;3122;48.208;11.174;2023-12-14T12:18:55;5.90;1.00
6178;DHT22;3122;48.208;11.174;2023-12-14T12:23:56;5.90;1.00
6178;DHT22;3122;48.208;11.174;2023-12-14T12:28:56;6.00;1.00
6178;DHT22;3122;48.208;11.174;2023-12-14T12:33:58;5.90;1.00
6178;DHT22;3122;48.208;11.174;2023-12-14T12:38:59;6.00;1.00
6178;DHT22;3122;48.208;11.174;2023-12-14T12:43:59;6.10;1.00
6178;DHT22;3122;48.208;11.174;2023-12-14T12:49:06;6.20;1.00
6178;DHT22;3122;48.208;11.174;2023-12-14T12:54:06;6.10;1.00
6178;DHT22;3122;48.208;11.174;2023-12-14T12:59:07;6.10;1.00
6178;DHT22;3122;48.208;11.174;2023-12-14T13:04:18;6.10;1.00
6178;DHT22;3122;48.208;11.174;2023-12-14T13:09:19;6.10;1.00
6178;DHT22;3122;48.208;11.174;2023-12-14T13:14:20;6.00;1.00
6178;DHT22;3122;48.208;11.174;2023-12-14T13:19:22;6.10;1.00
6178;DHT22;3122;48.208;11.174;2023-12-14T13:24:23;6.10;1.00
6178;DHT22;3122;48.208;11.174;2023-12-14T13:29:24;6.10;1.00
6178;DHT22;3122;48.208;11.174;2023-12-14T13:34:26;6.00;1.00
6178;DHT22;3122;48.208;11.174;2023-12-14T13:39:26;6.10;1.00
6178;DHT22;3122;48.208;11.174;2023-12-14T13:44:27;6.10;1.00
6178;DHT22;3122;48.208;11.174;2023-12-14T13:49:28;6.10;1.00
6178;DHT22;3122;48.208;11.174;2023-12-14T13:54:28;6.20;1.00
6178;DHT22;3122;48.208;11.174;2023-12-14T13:59:29;6.10;1.00
6178;DHT22;3122;48.208;11.174;2023-12-14T14:04:29;6.10;1.00
6178;DHT22;3122;48.208;11.174;2023-12-14T14:09:30;6.10;1.00
6178;DHT22;3122;48.208;11.174;2023-12-14T14:14:30;6.10;1.00
6178;DHT22;3122;48.208;11.174;2023-12-14T14:19:31;6.10;1.00
6178;DHT22;3122;48.208;11.174;2023-12-14T14:24:31;6.00;1.00
6178;DHT22;3122;48.208;11.174;2023-12-14T14:29:32;6.10;1.00
6178;DHT22;3122;48.208;11.174;2023-12-14T14:34:32;6.10;1.00
6178;DHT22;3122;48.208;11.174;2023-12-14T14:39:33;6.10;1.00
6178;DHT22;3122;48.208;11.174;2023-12-14T14:44:34;6.00;1.00
6178;DHT22;3122;48.208;11.174;2023-12-14T14:49:34;6.00;1.00
6178;DHT22;3122;48.208;11.174;2023-12-14T14:54:35;6.00;1.00
6178;DHT22;3122;48.208;11.174;2023-12-14T14:59:36;6.00;1.00
6178;DHT22;3122;48.208;11.174;2023-12-14T15:04:36;5.90;1.00
6178;DHT22;3122;48.208;11.174;2023-12-14T15:09:37;5.90;1.00
6178;DHT22;3122;48.208;11.174;2023-12-14T15:14:37;5.80;1.00
6178;DHT22;3122;48.208;11.174;2023-12-14T15:19:38;5.80;1.00
6178;DHT22;3122;48.208;11.174;2023-12-14T15:24:39;5.80;1.00
6178;DHT22;3122;48.208;11.174;2023-12-14T15:29:39;5.80;1.00
6178;DHT22;3122;48.208;11.174;2023-12-14T15:34:40;5.80;1.00
6178;DHT22;3122;48.208;11.174;2023-12-14T15:39:41;5.70;1.00
6178;DHT22;3122;48.208;11.174;2023-12-14T15:44:44;5.70;1.00
6178;DHT22;3122;48.208;11.174;2023-12-14T15:49:45;5.60;1.00
6178;DHT22;3122;48.208;11.174;2023-12-14T15:54:45;5.60;1.00
6178;DHT22;3122;48.208;11.174;2023-12-14T15:59:46;5.50;1.00
6178;DHT22;3122;48.208;11.174;2023-12-14T16:04:46;5.40;1.00
6178;DHT22;3122;48.208;11.174;2023-12-14T16:09:47;5.30;1.00
6178;DHT22;3122;48.208;11.174;2023-12-14T16:14:48;5.20;1.00
6178;DHT22;3122;48.208;11.174;2023-12-14T16:19:49;5.20;1.00
6178;DHT22;3122;48.208;11.174;2023-12-14T16:24:50;5.10;1.00
6178;DHT22;3122;48.208;11.174;2023-12-14T16:29:50;5.10;1.00
6178;DHT22;3122;48.208;11.174;2023-12-14T16:34:51;5.10;1.00
6178;DHT22;3122;48.208;11.174;2023-12-14T16:39:51;5.00;1.00
6178;DHT22;3122;48.208;11.174;2023-12-14T16:44:52;5.00;1.00
6178;DHT22;3122;48.208;11.174;2023-12-14T16:49:53;4.90;1.00
6178;DHT22;3122;48.208;11.174;2023-12-14T16:54:53;4.90;1.00
6178;DHT22;3122;48.208;11.174;2023-12-14T16:59:54;4.90;1.00
6178;DHT22;3122;48.208;11.174;2023-12-14T17:04:54;4.90;1.00
6178;DHT22;3122;48.208;11.174;2023-12-14T17:09:55;5.00;1.00
6178;DHT22;3122;48.208;11.174;2023-12-14T17:14:56;5.00;1.00
6178;DHT22;3122;48.208;11.174;2023-12-14T17:19:56;4.90;1.00
6178;DHT22;3122;48.208;11.174;2023-12-14T17:24:58;4.90;1.00
6178;DHT22;3122;48.208;11.174;2023-12-14T17:30:03;4.90;1.00
6178;DHT22;3122;48.208;11.174;2023-12-14T17:35:04;4.90;1.00
6178;DHT22;3122;48.208;11.174;2023-12-14T17:40:05;5.00;1.00
6178;DHT22;3122;48.208;11.174;2023-12-14T17:45:07;5.00;1.00
6178;DHT22;3122;48.208;11.174;2023-12-14T17:50:08;4.90;1.00
6178;DHT22;3122;48.208;11.174;2023-12-14T17:55:09;4.90;1.00
6178;DHT22;3122;48.208;11.174;2023-12-14T18:00:10;4.70;1.00
6178;DHT22;3122;48.208;11.174;2023-12-14T18:05:12;4.60;1.00
6178;DHT22;3122;48.208;11.174;2023-12-14T18:10:13;4.60;1.00
6178;DHT22;3122;48.208;11.174;2023-12-14T18:15:14;4.70;1.00
6178;DHT22;3122;48.208;11.174;2023-12-14T18:20:15;4.70;1.00
6178;DHT22;3122;48.208;11.174;2023-12-14T18:25:15;4.80;1.00
6178;DHT22;3122;48.208;11.174;2023-12-14T18:30:17;4.90;1.00
6178;DHT22;3122;48.208;11.174;2023-12-14T18:35:18;4.90;1.00
6178;DHT22;3122;48.208;11.174;2023-12-14T18:40:19;4.90;1.00
6178;DHT22;3122;48.208;11.174;2023-12-14T18:45:22;4.80;1.00
6178;DHT22;3122;48.208;11.174;2023-12-14T18:50:23;4.90;1.00
6178;DHT22;3122;48.208;11.174;2023-12-14T18:55:23;4.80;1.00
6178;DHT22;3122;48.208;11.174;2023-12-14T19:00:24;4.80;1.00
6178;DHT22;3122;48.208;11.174;2023-12-14T19:05:25;4.70;1.00
6178;DHT22;3122;48.208;11.174;2023-12-14T19:10:27;4.80;1.00
6178;DHT22;3122;48.208;11.174;2023-12-14T19:15:28;4.90;1.00
6178;DHT22;3122;48.208;11.174;2023-12-14T19:20:30;4.80;1.00
6178;DHT22;3122;48.208;11.174;2023-12-14T19:25:31;4.80;1.00
6178;DHT22;3122;48.208;11.174;2023-12-14T19:30:31;4.80;1.00
6178;DHT22;3122;48.208;11.174;2023-12-14T19:35:32;4.70;2.40
6178;DHT22;3122;48.208;11.174;2023-12-14T19:40:32;4.70;3.00
6178;DHT22;3122;48.208;11.174;2023-12-14T19:45:33;4.70;5.10
6178;DHT22;3122;48.208;11.174;2023-12-14T19:50:33;4.70;7.00
6178;DHT22;3122;48.208;11.174;2023-12-14T19:55:34;4.60;5.50
6178;DHT22;3122;48.208;11.174;2023-12-14T20:00:34;4.50;3.70
6178;DHT22;3122;48.208;11.174;2023-12-14T20:05:36;4.40;1.40
6178;DHT22;3122;48.208;11.174;2023-12-14T20:10:38;4.20;1.00
6178;DHT22;3122;48.208;11.174;2023-12-14T20:15:40;4.30;1.00
6178;DHT22;3122;48.208;11.174;2023-12-14T20:20:41;4.20;1.00
6178;DHT22;3122;48.208;11.174;2023-12-14T20:25:41;4.30;1.00
6178;DHT22;3122;48.208;11.174;2023-12-14T20:30:45;4.20;1.00
6178;DHT22;3122;48.208;11.174;2023-12-14T20:35:46;4.30;1.00
6178;DHT22;3122;48.208;11.174;2023-12-14T20:40:46;4.30;1.00
6178;DHT22;3122;48.208;11.174;2023-12-14T20:45:47;4.30;1.00
6178;DHT22;3122;48.208;11.174;2023-12-14T20:50:47;4.30;1.00
6178;DHT22;3122;48.208;11.174;2023-12-14T20:55:49;4.20;1.00
6178;DHT22;3122;48.208;11.174;2023-12-14T21:00:49;4.20;1.00
6178;DHT22;3122;48.208;11.174;2023-12-14T21:05:50;4.30;1.00
6178;DHT22;3122;48.208;11.174;2023-12-14T21:10:50;4.30;1.00
6178;DHT22;3122;48.208;11.174;2023-12-14T21:15:51;4.30;1.00
6178;DHT22;3122;48.208;11.174;2023-12-14T21:20:51;4.30;1.00
6178;DHT22;3122;48.208;11.174;2023-12-14T21:25:52;4.40;1.00
6178;DHT22;3122;48.208;11.174;2023-12-14T21:31:08;4.40;1.00
6178;DHT22;3122;48.208;11.174;2023-12-14T21:36:09;4.40;1.00
6178;DHT22;3122;48.208;11.174;2023-12-14T21:41:09;4.30;1.00
6178;DHT22;3122;48.208;11.174;2023-12-14T21:46:10;4.30;1.00
6178;DHT22;3122;48.208;11.174;2023-12-14T21:51:10;4.40;1.70
6178;DHT22;3122;48.208;11.174;2023-12-14T21:56:11;4.40;2.50
6178;DHT22;3122;48.208;11.174;2023-12-14T22:01:11;4.40;3.40
6178;DHT22;3122;48.208;11.174;2023-12-14T22:06:13;4.40;4.10
6178;DHT22;3122;48.208;11.174;2023-12-14T22:11:15;4.40;5.40
6178;DHT22;3122;48.208;11.174;2023-12-14T22:16:15;4.40;7.90
6178;DHT22;3122;48.208;11.174;2023-12-14T22:21:16;4.30;9.10
6178;DHT22;3122;48.208;11.174;2023-12-14T22:26:17;4.40;10.90
6178;DHT22;3122;48.208;11.174;2023-12-14T22:31:18;4.40;11.80
6178;DHT22;3122;48.208;11.174;2023-12-14T22:36:19;4.30;11.40
6178;DHT22;3122;48.208;11.174;2023-12-14T22:41:19;4.30;12.30
6178;DHT22;3122;48.208;11.174;2023-12-14T22:46:20;4.30;12.20
6178;DHT22;3122;48.208;11.174;2023-12-14T22:51:21;4.30;12.50
6178;DHT22;3122;48.208;11.174;2023-12-14T22:56:23;4.30;12.60
6178;DHT22;3122;48.208;11.174;2023-12-14T23:01:36;4.20;11.70
6178;DHT22;3122;48.208;11.174;2023-12-14T23:06:36;4.20;11.70
6178;DHT22;3122;48.208;11.174;2023-12-14T23:11:37;4.00;10.50
6178;DHT22;3122;48.208;11.174;2023-12-14T23:16:43;4.00;7.60
6178;DHT22;3122;48.208;11.174;2023-12-14T23:21:44;4.00;8.00
6178;DHT22;3122;48.208;11.174;2023-12-14T23:26:44;4.00;7.10
6178;DHT22;3122;48.208;11.174;2023-12-14T23:31:45;4.00;5.30
6178;DHT22;3122;48.208;11.174;2023-12-14T23:36:45;4.00;5.90
6178;DHT22;3122;48.208;11.174;2023-12-14T23:41:46;4.00;6.10
6178;DHT22;3122;48.208;11.174;2023-12-14T23:46:46;4.10;4.80
6178;DHT22;3122;48.208;11.174;2023-12-14T23:51:47;4.10;5.10
6178;DHT22;3122;48.208;11.174;2023-12-14T23:56:47;4.00;6.00
